Muroto — 3ETR6 — position and weather

sailwx.info

Track history (hours):
 
Tides and Currents Weather Stations Pressure Air Temp Water Temp Dewpoint Dewpoint Depression Visibility Wind Speed Wind Dir Waves Ship Positions

Muroto

Last reported at 2018-Feb-17 18:18 UTC. Time now 2018-Feb-24 04:16 UTC.
Position S 19°33' E 115°37'.

Length 133 m; draft 5.4 m.

Type: Cargo ship. MMSI: 370647000.

Date/timePositionNaut miles runAvg speedWind from/ knotsBaromVisibWave heightAir tempDewpointWater temp
2018-Feb-17 18:18S 19°33' E 115°37'1110.9
2018-Feb-17 17:20S 19°28' E 115°47'  
2018-Feb-14 18:59S 20°19' E 118°34'3 6.6
2018-Feb-14 18:30S 20°16' E 118°35'5 9.3
2018-Feb-14 18:00S 20°11' E 118°33'4 7.5
2018-Feb-14 17:30S 20°08' E 118°35'3 5.3
2018-Feb-14 16:57S 20°07' E 118°38'0 0.1
2018-Feb-14 16:27S 20°07' E 118°38'0 0.0
2018-Feb-14 12:27S 20°07' E 118°38'0 0.0
2018-Feb-14 11:33S 20°07' E 118°38'0 0.0
2018-Feb-14 11:15S 20°07' E 118°38'0 0.0
2018-Feb-14 09:45S 20°07' E 118°38'0 0.0
2018-Feb-14 07:57S 20°07' E 118°38'0 0.0
2018-Feb-13 09:03S 20°07' E 118°38'0 0.1
2018-Feb-13 08:57S 20°07' E 118°38'0 0.0
2018-Feb-13 08:27S 20°07' E 118°38'0 0.0
2018-Feb-13 07:57S 20°07' E 118°38'0 0.0
2018-Feb-13 07:27S 20°07' E 118°38'0 0.0
2018-Feb-13 06:03S 20°07' E 118°38'0 0.0
2018-Feb-13 05:33S 20°07' E 118°38'0 0.0
2018-Feb-13 05:21S 20°07' E 118°38'0 0.0
2018-Feb-13 00:33S 20°07' E 118°38'0 0.0
2018-Feb-13 00:09S 20°07' E 118°38'15 6.5
2018-Feb-12 21:49S 19°56' E 118°28'1 3.3
2018-Feb-12 21:29S 19°55' E 118°28'610.7
2018-Feb-12 20:54S 19°49' E 118°26'512.2
2018-Feb-12 20:29S 19°44' E 118°25'611.8
2018-Feb-12 19:58S 19°38' E 118°24'1211.7
2018-Feb-12 18:56S 19°26' E 118°21'512.0
2018-Feb-12 18:30S 19°21' E 118°19'612.3
2018-Feb-12 17:58S 19°14' E 118°18'  
Track history (hours):
 
Tides and Currents Weather Stations Pressure Air Temp Water Temp Dewpoint Dewpoint Depression Visibility Wind Speed Wind Dir Waves Ship Positions

Muroto

Last reported at 2018-Feb-17 18:18 UTC. Time now 2018-Feb-24 04:16 UTC.
Position S 19°33' E 115°37'.

Length 133 m; draft 5.4 m.

Type: Cargo ship. MMSI: 370647000.

Date/timePositionNaut miles runAvg speedWind from/ knotsBaromVisibWave heightAir tempDewpointWater temp
2018-Feb-17 18:18S 19°33' E 115°37'1110.9
2018-Feb-17 17:20S 19°28' E 115°47'  
2018-Feb-14 18:59S 20°19' E 118°34'3 6.6
2018-Feb-14 18:30S 20°16' E 118°35'5 9.3
2018-Feb-14 18:00S 20°11' E 118°33'4 7.5
2018-Feb-14 17:30S 20°08' E 118°35'3 5.3
2018-Feb-14 16:57S 20°07' E 118°38'0 0.1
2018-Feb-14 16:27S 20°07' E 118°38'0 0.0
2018-Feb-14 12:27S 20°07' E 118°38'0 0.0
2018-Feb-14 11:33S 20°07' E 118°38'0 0.0
2018-Feb-14 11:15S 20°07' E 118°38'0 0.0
2018-Feb-14 09:45S 20°07' E 118°38'0 0.0
2018-Feb-14 07:57S 20°07' E 118°38'0 0.0
2018-Feb-13 09:03S 20°07' E 118°38'0 0.1
2018-Feb-13 08:57S 20°07' E 118°38'0 0.0
2018-Feb-13 08:27S 20°07' E 118°38'0 0.0
2018-Feb-13 07:57S 20°07' E 118°38'0 0.0
2018-Feb-13 07:27S 20°07' E 118°38'0 0.0
2018-Feb-13 06:03S 20°07' E 118°38'0 0.0
2018-Feb-13 05:33S 20°07' E 118°38'0 0.0
2018-Feb-13 05:21S 20°07' E 118°38'0 0.0
2018-Feb-13 00:33S 20°07' E 118°38'0 0.0
2018-Feb-13 00:09S 20°07' E 118°38'15 6.5
2018-Feb-12 21:49S 19°56' E 118°28'1 3.3
2018-Feb-12 21:29S 19°55' E 118°28'610.7
2018-Feb-12 20:54S 19°49' E 118°26'512.2
2018-Feb-12 20:29S 19°44' E 118°25'611.8
2018-Feb-12 19:58S 19°38' E 118°24'1211.7
2018-Feb-12 18:56S 19°26' E 118°21'512.0
2018-Feb-12 18:30S 19°21' E 118°19'612.3
2018-Feb-12 17:58S 19°14' E 118°18'  

Dump ship's entire track history